createdAt,value
2024-03-10T00:05:42.836Z,12.07
2024-03-10T00:12:25.192Z,13.25
2024-03-10T00:19:09.116Z,10.32
2024-03-10T00:25:51.562Z,9.13
2024-03-10T00:32:34.452Z,7.47
2024-03-10T00:39:16.998Z,10.07
2024-03-10T00:45:59.192Z,8.10
2024-03-10T00:52:41.744Z,8.70
2024-03-10T00:59:24.425Z,9.02
2024-03-10T01:06:07.579Z,9.65
2024-03-10T01:12:49.807Z,8.38
2024-03-10T01:19:32.281Z,7.70
2024-03-10T01:26:14.858Z,7.50
2024-03-10T01:32:57.517Z,6.18
2024-03-10T01:39:39.946Z,8.02
2024-03-10T01:46:22.669Z,9.07
2024-03-10T01:53:04.891Z,8.57
2024-03-10T01:59:49.423Z,7.07
2024-03-10T02:06:32.006Z,6.20
2024-03-10T02:13:14.712Z,6.15
2024-03-10T02:19:57.958Z,10.23
2024-03-10T02:26:45.423Z,6.82
2024-03-10T02:33:46.671Z,7.20
2024-03-10T02:40:47.220Z,6.07
2024-03-10T02:47:29.501Z,7.20
2024-03-10T02:54:11.929Z,6.03
2024-03-10T03:00:54.282Z,8.23
2024-03-10T03:07:36.650Z,6.40
2024-03-10T03:14:19.013Z,6.15
2024-03-10T03:21:01.589Z,4.70
2024-03-10T03:27:51.291Z,4.57
2024-03-10T03:34:34.379Z,5.03
2024-03-10T03:41:16.784Z,8.02
2024-03-10T03:47:59.126Z,6.40
2024-03-10T03:54:42.319Z,4.75
2024-03-10T04:01:24.740Z,6.13
2024-03-10T04:08:08.076Z,5.50
2024-03-10T04:14:50.525Z,4.20
2024-03-10T04:21:34.120Z,5.20
2024-03-10T04:28:16.726Z,5.60
2024-03-10T04:34:59.442Z,5.07
2024-03-10T04:41:42.169Z,5.15
2024-03-10T04:48:24.849Z,4.95
2024-03-10T04:55:08.995Z,4.65
2024-03-10T05:01:54.637Z,4.75
2024-03-10T05:08:37.152Z,3.85
2024-03-10T05:15:19.450Z,3.58
2024-03-10T05:22:03.321Z,6.78
2024-03-10T05:28:45.690Z,7.70
2024-03-10T05:35:28.168Z,4.47
2024-03-10T05:42:10.683Z,4.35
2024-03-10T05:48:56.393Z,5.63
2024-03-10T05:55:38.743Z,4.57
2024-03-10T06:02:21.070Z,3.72
2024-03-10T06:09:06.060Z,4.18
2024-03-10T06:15:48.706Z,6.40
2024-03-10T06:22:49.406Z,5.15
2024-03-10T06:29:31.858Z,3.65
2024-03-10T06:36:14.958Z,5.70
2024-03-10T06:42:57.685Z,5.53
2024-03-10T06:49:40.552Z,5.60
2024-03-10T06:56:22.908Z,4.20
2024-03-10T07:03:05.811Z,4.25
2024-03-10T07:09:48.911Z,4.55
2024-03-10T07:16:32.328Z,3.75
2024-03-10T07:23:14.804Z,4.68
2024-03-10T07:29:58.466Z,4.50
2024-03-10T07:36:40.884Z,4.80
2024-03-10T07:43:23.980Z,5.95
2024-03-10T07:50:07.426Z,4.45
2024-03-10T07:56:49.965Z,3.95
2024-03-10T08:03:32.513Z,3.38
2024-03-10T08:10:15.558Z,5.07
2024-03-10T08:16:58.124Z,4.75
2024-03-10T08:23:41.562Z,4.10
2024-03-10T08:30:24.091Z,5.78
2024-03-10T08:37:06.830Z,4.80
2024-03-10T08:43:50.129Z,4.63
2024-03-10T08:50:32.780Z,6.22
2024-03-10T08:57:15.412Z,3.63
2024-03-10T09:04:03.224Z,3.75
2024-03-10T09:10:53.420Z,3.25
2024-03-10T09:17:42.426Z,3.97
2024-03-10T09:24:26.825Z,4.13
2024-03-10T09:31:10.808Z,2.90
2024-03-10T09:38:01.445Z,2.53
2024-03-10T09:44:44.112Z,3.17
2024-03-10T09:51:28.610Z,2.88
2024-03-10T09:58:23.409Z,3.58
2024-03-10T10:05:29.978Z,3.28
2024-03-10T10:12:13.716Z,2.67
2024-03-10T10:18:59.778Z,3.15
2024-03-10T10:25:46.333Z,3.25
2024-03-10T10:32:29.371Z,2.75
2024-03-10T10:39:17.289Z,3.22
2024-03-10T10:46:00.296Z,3.40
2024-03-10T10:52:42.844Z,2.80
2024-03-10T10:59:26.423Z,2.67
2024-03-10T11:06:15.830Z,2.88
2024-03-10T11:13:08.614Z,4.22
2024-03-10T11:19:53.218Z,2.97
2024-03-10T11:26:35.789Z,2.88
2024-03-10T11:33:22.297Z,8.25
2024-03-10T11:40:06.179Z,2.40
2024-03-10T11:46:48.474Z,4.13
2024-03-10T11:53:31.283Z,3.72
2024-03-10T12:00:22.843Z,2.95
2024-03-10T12:07:09.609Z,2.25
2024-03-10T12:13:52.224Z,4.75
2024-03-10T12:20:36.482Z,3.05
2024-03-10T12:27:19.045Z,4.72
2024-03-10T12:34:03.458Z,2.53
2024-03-10T12:40:46.289Z,3.58
2024-03-10T12:47:29.194Z,3.55
2024-03-10T12:54:11.624Z,2.55
2024-03-10T13:00:54.206Z,4.10
2024-03-10T13:07:37.614Z,2.47
2024-03-10T13:14:20.989Z,4.82
2024-03-10T13:21:03.943Z,2.25
2024-03-10T13:27:46.587Z,2.83
2024-03-10T13:34:29.862Z,3.40
2024-03-10T13:41:12.673Z,4.38
2024-03-10T13:47:55.495Z,4.72
2024-03-10T13:54:38.159Z,5.40
2024-03-10T14:01:20.615Z,3.95
2024-03-10T14:08:04.100Z,3.75
2024-03-10T14:14:49.142Z,5.43
2024-03-10T14:21:32.566Z,3.85
2024-03-10T14:28:16.678Z,6.07
2024-03-10T14:35:00.630Z,3.42
2024-03-10T14:41:43.848Z,3.67
2024-03-10T14:48:28.006Z,3.63
2024-03-10T14:55:12.783Z,26.33
2024-03-10T15:01:55.359Z,6.55
2024-03-10T15:08:38.168Z,5.78
2024-03-10T15:15:22.248Z,10.52
2024-03-10T15:22:05.007Z,5.25
2024-03-10T15:28:47.686Z,6.85
2024-03-10T15:35:31.069Z,7.93
2024-03-10T15:42:15.632Z,13.52
2024-03-10T15:48:58.364Z,7.68
2024-03-10T15:55:40.937Z,6.97
2024-03-10T16:02:23.594Z,8.57
2024-03-10T16:09:11.827Z,18.65
2024-03-10T16:15:55.104Z,9.63
2024-03-10T16:22:37.928Z,9.57
2024-03-10T16:29:22.350Z,7.80
2024-03-10T16:36:06.760Z,10.68
2024-03-10T16:42:50.369Z,8.93
2024-03-10T16:49:36.614Z,13.50
2024-03-10T16:56:21.827Z,14.13
2024-03-10T17:03:12.236Z,16.05
2024-03-10T17:09:54.880Z,11.35
2024-03-10T17:16:38.301Z,10.85
2024-03-10T17:23:22.773Z,20.08
2024-03-10T17:30:07.424Z,13.68
2024-03-10T17:36:51.499Z,12.63
2024-03-10T17:43:34.545Z,13.85
2024-03-10T17:50:17.540Z,12.38
2024-03-10T17:57:01.820Z,11.07
2024-03-10T18:03:46.232Z,15.40
2024-03-10T18:10:31.771Z,14.85
2024-03-10T18:17:14.909Z,16.58
2024-03-10T18:23:59.049Z,13.40
2024-03-10T18:30:44.447Z,12.48
2024-03-10T18:37:27.490Z,13.88
2024-03-10T18:44:11.749Z,15.57
2024-03-10T18:51:02.166Z,13.52
2024-03-10T18:57:49.811Z,13.68
2024-03-10T19:04:34.535Z,13.57
2024-03-10T19:11:19.051Z,16.40
2024-03-10T19:18:06.199Z,13.02
2024-03-10T19:24:49.326Z,13.13
2024-03-10T19:31:32.314Z,15.18
2024-03-10T19:38:16.105Z,11.55
2024-03-10T19:44:59.044Z,10.60
2024-03-10T19:51:42.044Z,9.00
2024-03-10T19:58:25.074Z,9.13
2024-03-10T20:05:11.668Z,6.40
2024-03-10T20:11:54.883Z,6.15
2024-03-10T20:18:40.921Z,5.00
2024-03-10T20:25:26.221Z,4.05
2024-03-10T20:32:09.269Z,4.60
2024-03-10T20:38:54.046Z,3.72
2024-03-10T20:45:41.115Z,5.05
2024-03-10T20:52:25.168Z,8.70
2024-03-10T20:59:09.155Z,3.35
2024-03-10T21:05:52.462Z,4.28
2024-03-10T21:12:35.597Z,2.80
2024-03-10T21:19:19.303Z,4.32
2024-03-10T21:26:02.197Z,2.78
2024-03-10T21:32:48.195Z,2.60
2024-03-10T21:39:31.965Z,2.90
2024-03-10T21:46:14.855Z,3.95
2024-03-10T21:52:58.705Z,5.38
2024-03-10T21:59:41.777Z,2.67
2024-03-10T22:06:25.000Z,3.80
2024-03-10T22:13:08.034Z,3.13
2024-03-10T22:19:51.070Z,2.30
2024-03-10T22:26:36.161Z,2.40
2024-03-10T22:33:19.015Z,2.33
2024-03-10T22:40:01.711Z,2.08
2024-03-10T22:46:44.402Z,2.22
2024-03-10T22:53:27.316Z,3.58
2024-03-10T23:00:25.796Z,3.22
2024-03-10T23:07:08.821Z,2.92
2024-03-10T23:13:51.469Z,2.30
2024-03-10T23:20:36.638Z,2.20
2024-03-10T23:27:19.790Z,2.00
2024-03-10T23:34:02.306Z,1.90
2024-03-10T23:40:44.860Z,2.22
2024-03-10T23:47:27.520Z,3.33
2024-03-10T23:54:10.237Z,1.63
